createdAt,value
2023-04-10T00:00:14.456Z,23.78
2023-04-10T00:01:14.471Z,23.79
2023-04-10T00:02:14.576Z,23.79
2023-04-10T00:03:14.779Z,23.78
2023-04-10T00:04:14.792Z,23.78
2023-04-10T00:05:14.755Z,23.78
2023-04-10T00:06:14.580Z,23.79
2023-04-10T00:07:14.588Z,23.79
2023-04-10T00:08:14.637Z,23.78
2023-04-10T00:09:14.643Z,23.78
2023-04-10T00:10:14.640Z,23.79
2023-04-10T00:11:14.708Z,23.78
2023-04-10T00:12:14.747Z,23.78
2023-04-10T00:13:14.771Z,23.79
2023-04-10T00:14:14.822Z,23.79
2023-04-10T00:15:14.873Z,23.79
2023-04-10T00:16:14.934Z,23.79
2023-04-10T00:17:14.887Z,23.81
2023-04-10T00:18:14.935Z,23.81
2023-04-10T00:19:15.057Z,23.78
2023-04-10T00:20:14.951Z,23.76
2023-04-10T00:21:15.043Z,23.79
2023-04-10T00:22:14.988Z,23.79
2023-04-10T00:23:15.031Z,23.79
2023-04-10T00:24:15.037Z,23.81
2023-04-10T00:25:15.018Z,23.81
2023-04-10T00:26:15.254Z,23.78
2023-04-10T00:27:15.057Z,23.81
2023-04-10T00:28:15.106Z,23.81
2023-04-10T00:29:15.005Z,23.78
2023-04-10T00:30:14.988Z,23.81
2023-04-10T00:31:14.997Z,23.79
2023-04-10T00:32:15.068Z,23.79
2023-04-10T00:33:15.018Z,23.79
2023-04-10T00:34:15.001Z,23.79
2023-04-10T00:35:14.983Z,23.79
2023-04-10T00:36:15.050Z,23.78
2023-04-10T00:37:16.739Z,23.79
2023-04-10T00:38:14.980Z,23.81
2023-04-10T00:39:14.962Z,23.79
2023-04-10T00:40:14.938Z,23.78
2023-04-10T00:41:15.051Z,23.78
2023-04-10T00:42:14.971Z,23.78
2023-04-10T00:43:15.012Z,23.81
2023-04-10T00:44:15.095Z,23.78
2023-04-10T00:45:15.052Z,23.78
2023-04-10T00:46:15.117Z,23.78
2023-04-10T00:47:15.054Z,23.78
2023-04-10T00:48:15.048Z,23.78
2023-04-10T00:49:15.053Z,23.78
2023-04-10T00:50:15.056Z,23.79
2023-04-10T00:51:15.069Z,23.76
2023-04-10T00:52:15.034Z,23.81
2023-04-10T00:53:15.047Z,23.78
2023-04-10T00:54:15.006Z,23.76
2023-04-10T00:55:15.060Z,23.78
2023-04-10T00:56:15.022Z,23.76
2023-04-10T00:57:15.049Z,23.75
2023-04-10T00:58:15.037Z,23.79
2023-04-10T00:59:15.027Z,23.78
2023-04-10T01:00:15.045Z,23.76
2023-04-10T01:01:15.075Z,23.78
2023-04-10T01:02:15.096Z,23.78
2023-04-10T01:03:15.118Z,23.75
2023-04-10T01:04:15.158Z,23.76
2023-04-10T01:05:14.981Z,23.76
2023-04-10T01:06:14.990Z,23.78
2023-04-10T01:07:14.993Z,23.78
2023-04-10T01:08:15.002Z,23.78
2023-04-10T01:09:14.990Z,23.78
2023-04-10T01:10:15.003Z,23.76
2023-04-10T01:11:15.043Z,23.76
2023-04-10T01:12:15.078Z,23.78
2023-04-10T01:13:15.094Z,23.78
2023-04-10T01:14:15.198Z,23.76
2023-04-10T01:15:15.163Z,23.78
2023-04-10T01:16:15.190Z,23.78
2023-04-10T01:17:15.253Z,23.79
2023-04-10T01:18:15.182Z,23.78
2023-04-10T01:19:15.226Z,23.76
2023-04-10T01:20:15.201Z,23.76
2023-04-10T01:21:15.226Z,23.75
2023-04-10T01:22:15.171Z,23.75
2023-04-10T01:23:15.183Z,23.76
2023-04-10T01:24:15.169Z,23.75
2023-04-10T01:25:15.163Z,23.76
2023-04-10T01:26:15.175Z,23.76
2023-04-10T01:27:15.287Z,23.73
2023-04-10T01:28:15.159Z,23.76
2023-04-10T01:29:15.148Z,23.76
2023-04-10T01:30:15.181Z,23.76
2023-04-10T01:31:15.187Z,23.75
2023-04-10T01:32:15.159Z,23.78
2023-04-10T01:33:15.148Z,23.78
2023-04-10T01:34:15.172Z,23.76
2023-04-10T01:35:15.124Z,23.73
2023-04-10T01:36:15.111Z,23.78
2023-04-10T01:37:15.112Z,23.75
2023-04-10T01:38:15.109Z,23.76
2023-04-10T01:39:15.118Z,23.78
2023-04-10T01:40:15.114Z,23.76
2023-04-10T01:41:15.120Z,23.75
2023-04-10T01:42:15.138Z,23.75
2023-04-10T01:43:15.124Z,23.76
2023-04-10T01:44:15.172Z,23.76
2023-04-10T01:45:15.200Z,23.78
2023-04-10T01:46:15.269Z,23.73
2023-04-10T01:47:15.226Z,23.76
2023-04-10T01:48:15.227Z,23.75
2023-04-10T01:49:15.262Z,23.73
2023-04-10T01:50:15.267Z,23.75
2023-04-10T01:51:15.260Z,23.76
2023-04-10T01:52:15.265Z,23.75
2023-04-10T01:53:15.259Z,23.73
2023-04-10T01:54:15.275Z,23.75
2023-04-10T01:55:15.308Z,23.75
2023-04-10T01:56:15.301Z,23.75
2023-04-10T01:57:15.322Z,23.75
2023-04-10T01:58:15.292Z,23.76
2023-04-10T01:59:15.300Z,23.76
2023-04-10T02:00:15.332Z,23.78
2023-04-10T02:01:26.255Z,23.76
2023-04-10T02:02:16.339Z,23.78
2023-04-10T02:03:15.307Z,23.75
2023-04-10T02:04:15.293Z,23.76
2023-04-10T02:05:15.198Z,23.73
2023-04-10T02:06:15.177Z,23.78
2023-04-10T02:07:15.162Z,23.75
2023-04-10T02:08:15.155Z,23.75
2023-04-10T02:09:15.133Z,23.76
2023-04-10T02:10:15.115Z,23.75
2023-04-10T02:11:15.112Z,23.76
2023-04-10T02:12:15.070Z,23.75
2023-04-10T02:13:15.054Z,23.73
2023-04-10T02:14:15.034Z,23.73
2023-04-10T02:15:15.013Z,23.75
2023-04-10T02:16:15.085Z,23.76
2023-04-10T02:17:15.143Z,23.76
2023-04-10T02:18:15.074Z,23.78
2023-04-10T02:19:15.083Z,23.78
2023-04-10T02:20:15.092Z,23.76
2023-04-10T02:21:15.084Z,23.76
2023-04-10T02:22:15.091Z,23.75
2023-04-10T02:23:15.122Z,23.75
2023-04-10T02:24:15.105Z,23.76
2023-04-10T02:25:15.116Z,23.78
2023-04-10T02:26:15.122Z,23.76
2023-04-10T02:27:15.118Z,23.75
2023-04-10T02:28:15.128Z,23.75
2023-04-10T02:29:15.790Z,23.73
2023-04-10T02:30:15.150Z,23.75
2023-04-10T02:31:15.167Z,23.73
2023-04-10T02:32:15.142Z,23.75
2023-04-10T02:33:15.133Z,23.75
2023-04-10T02:34:15.130Z,23.76
2023-04-10T02:35:15.136Z,23.75
2023-04-10T02:36:15.139Z,23.75
2023-04-10T02:37:15.073Z,23.75
2023-04-10T02:38:17.205Z,23.75
2023-04-10T02:39:15.163Z,23.76
2023-04-10T02:40:15.071Z,23.76
2023-04-10T02:41:15.149Z,23.75
2023-04-10T02:42:15.036Z,23.73
2023-04-10T02:43:15.042Z,23.75
2023-04-10T02:44:15.019Z,23.72
2023-04-10T02:45:15.018Z,23.75
2023-04-10T02:46:15.030Z,23.75
2023-04-10T02:47:14.991Z,23.73
2023-04-10T02:48:14.980Z,23.76
2023-04-10T02:49:14.960Z,23.73
2023-04-10T02:50:14.995Z,23.72
2023-04-10T02:51:14.996Z,23.75
2023-04-10T02:52:14.977Z,23.75
2023-04-10T02:53:14.967Z,23.75
2023-04-10T02:54:14.977Z,23.75
2023-04-10T02:55:14.953Z,23.75
2023-04-10T02:56:14.974Z,23.73
2023-04-10T02:57:14.947Z,23.75
2023-04-10T02:58:15.332Z,23.75
2023-04-10T02:59:14.908Z,23.73
2023-04-10T03:00:14.900Z,23.76
2023-04-10T03:01:14.874Z,23.76
2023-04-10T03:02:14.960Z,23.75
2023-04-10T03:03:15.040Z,23.75
2023-04-10T03:04:15.128Z,23.73
2023-04-10T03:05:14.895Z,23.75
2023-04-10T03:06:14.889Z,23.75
2023-04-10T03:07:14.850Z,23.75
2023-04-10T03:08:14.840Z,23.75
2023-04-10T03:09:14.823Z,23.75
2023-04-10T03:10:14.814Z,23.75
2023-04-10T03:11:14.796Z,23.76
2023-04-10T03:12:14.791Z,23.73
2023-04-10T03:13:14.762Z,23.75
2023-04-10T03:14:14.765Z,23.75
2023-04-10T03:15:14.736Z,23.75
2023-04-10T03:16:14.796Z,23.75
2023-04-10T03:17:14.717Z,23.75
2023-04-10T03:18:14.738Z,23.75
2023-04-10T03:19:14.727Z,23.76
2023-04-10T03:20:14.710Z,23.75
2023-04-10T03:21:14.702Z,23.75
2023-04-10T03:22:14.769Z,23.76
2023-04-10T03:23:14.676Z,23.75
2023-04-10T03:24:14.679Z,23.75
2023-04-10T03:25:14.701Z,23.75
2023-04-10T03:26:14.677Z,23.75
2023-04-10T03:27:14.662Z,23.72
2023-04-10T03:28:14.646Z,23.73
2023-04-10T03:29:14.628Z,23.71
2023-04-10T03:30:14.629Z,23.75
2023-04-10T03:31:14.686Z,23.73
2023-04-10T03:32:14.630Z,23.73
2023-04-10T03:33:14.666Z,23.73
2023-04-10T03:34:14.620Z,23.72
2023-04-10T03:35:14.626Z,23.72
2023-04-10T03:36:14.688Z,23.71
2023-04-10T03:37:14.662Z,23.72
2023-04-10T03:38:14.708Z,23.71
2023-04-10T03:39:14.692Z,23.71
2023-04-10T03:40:14.688Z,23.71
2023-04-10T03:41:14.715Z,23.72
2023-04-10T03:42:14.679Z,23.69
2023-04-10T03:43:14.685Z,23.71
2023-04-10T03:44:14.701Z,23.69
2023-04-10T03:45:14.697Z,23.69
2023-04-10T03:46:15.400Z,23.72
2023-04-10T03:47:14.712Z,23.73
2023-04-10T03:48:14.766Z,23.71
2023-04-10T03:49:14.705Z,23.71
2023-04-10T03:50:14.714Z,23.71
2023-04-10T03:51:14.726Z,23.72
2023-04-10T03:52:14.727Z,23.69
2023-04-10T03:53:14.753Z,23.71
2023-04-10T03:54:14.782Z,23.69
2023-04-10T03:55:14.881Z,23.68
2023-04-10T03:56:14.836Z,23.69
2023-04-10T03:57:14.819Z,23.71
2023-04-10T03:58:14.838Z,23.69
2023-04-10T03:59:14.840Z,23.69
2023-04-10T04:00:14.842Z,23.69
2023-04-10T04:01:14.889Z,23.68
2023-04-10T04:02:14.922Z,23.69
2023-04-10T04:03:15.278Z,23.68
2023-04-10T04:04:14.987Z,23.68
2023-04-10T04:05:14.909Z,23.68
2023-04-10T04:06:14.925Z,23.69
2023-04-10T04:07:14.939Z,23.68
2023-04-10T04:08:14.955Z,23.72
2023-04-10T04:09:14.984Z,23.69
2023-04-10T04:10:15.364Z,23.68
2023-04-10T04:11:14.974Z,23.69
2023-04-10T04:12:14.982Z,23.69
2023-04-10T04:13:14.965Z,23.71
2023-04-10T04:14:14.951Z,23.69
2023-04-10T04:15:14.937Z,23.69
2023-04-10T04:16:14.981Z,23.69
2023-04-10T04:17:14.928Z,23.69
2023-04-10T04:18:14.931Z,23.69
2023-04-10T04:19:16.987Z,23.69
2023-04-10T04:20:14.891Z,23.68
2023-04-10T04:21:15.372Z,23.71
2023-04-10T04:22:14.979Z,23.69
2023-04-10T04:23:14.874Z,23.69
2023-04-10T04:24:14.854Z,23.71
2023-04-10T04:25:14.844Z,23.69
2023-04-10T04:26:14.851Z,23.69
2023-04-10T04:27:14.826Z,23.69
2023-04-10T04:28:14.940Z,23.69
2023-04-10T04:29:14.815Z,23.71
2023-04-10T04:30:14.852Z,23.69
2023-04-10T04:31:14.843Z,23.69
2023-04-10T04:32:14.930Z,23.71
2023-04-10T04:33:14.845Z,23.71
2023-04-10T04:34:14.847Z,23.71
2023-04-10T04:35:14.883Z,23.69
2023-04-10T04:36:14.874Z,23.71
2023-04-10T04:37:14.831Z,23.72
2023-04-10T04:38:14.807Z,23.72
2023-04-10T04:39:14.804Z,23.72
2023-04-10T04:40:14.826Z,23.72
2023-04-10T04:41:14.840Z,23.72
2023-04-10T04:42:14.830Z,23.72
2023-04-10T04:43:14.809Z,23.71
2023-04-10T04:44:14.800Z,23.73
2023-04-10T04:45:14.781Z,23.72
2023-04-10T04:46:14.807Z,23.73
2023-04-10T04:47:14.794Z,23.72
2023-04-10T04:48:14.773Z,23.72
2023-04-10T04:49:14.847Z,23.72
2023-04-10T04:50:14.744Z,23.72
2023-04-10T04:51:14.745Z,23.72
2023-04-10T04:52:14.725Z,23.72
2023-04-10T04:53:14.741Z,23.71
2023-04-10T04:54:14.729Z,23.71
2023-04-10T04:55:14.714Z,23.73
2023-04-10T04:56:14.701Z,23.72
2023-04-10T04:57:14.693Z,23.72
2023-04-10T04:58:14.676Z,23.73
2023-04-10T04:59:14.668Z,23.73
2023-04-10T05:00:14.682Z,23.75
2023-04-10T05:01:14.744Z,23.73
2023-04-10T05:02:14.730Z,23.72
2023-04-10T05:03:14.761Z,23.73
2023-04-10T05:04:14.795Z,23.73
2023-04-10T05:05:14.642Z,23.72
2023-04-10T05:06:14.635Z,23.73
2023-04-10T05:07:14.614Z,23.73
2023-04-10T05:08:14.605Z,23.73
2023-04-10T05:09:14.620Z,23.73
2023-04-10T05:10:14.612Z,23.72
2023-04-10T05:11:14.617Z,23.73
2023-04-10T05:12:14.593Z,23.72
2023-04-10T05:13:14.578Z,23.73
2023-04-10T05:14:14.572Z,23.73
2023-04-10T05:15:14.566Z,23.73
2023-04-10T05:16:14.737Z,23.72
2023-04-10T05:17:14.540Z,23.73
2023-04-10T05:18:14.609Z,23.73
2023-04-10T05:19:14.522Z,23.73
2023-04-10T05:20:14.542Z,23.72
2023-04-10T05:21:14.529Z,23.72
2023-04-10T05:22:17.432Z,23.72
2023-04-10T05:23:14.529Z,23.73
2023-04-10T05:24:14.517Z,23.73
2023-04-10T05:25:14.506Z,23.73
2023-04-10T05:26:14.535Z,23.75
2023-04-10T05:27:14.459Z,23.75
2023-04-10T05:28:14.437Z,23.72
2023-04-10T05:29:14.426Z,23.72
2023-04-10T05:30:14.399Z,23.73
2023-04-10T05:31:14.419Z,23.73
2023-04-10T05:32:14.372Z,23.75
2023-04-10T05:33:14.356Z,23.72
2023-04-10T05:34:14.335Z,23.72
2023-04-10T05:35:14.324Z,23.72
2023-04-10T05:36:14.340Z,23.72
2023-04-10T05:37:14.312Z,23.73
2023-04-10T05:38:14.290Z,23.73
2023-04-10T05:39:14.281Z,23.72
2023-04-10T05:40:14.266Z,23.73
2023-04-10T05:41:14.259Z,23.72
2023-04-10T05:42:14.261Z,23.73
2023-04-10T05:43:14.239Z,23.73
2023-04-10T05:44:14.233Z,23.73
2023-04-10T05:45:14.226Z,23.72
2023-04-10T05:46:14.244Z,23.73
2023-04-10T05:47:14.848Z,23.73
2023-04-10T05:48:14.177Z,23.76
2023-04-10T05:49:14.288Z,23.76
2023-04-10T05:50:14.138Z,23.71
2023-04-10T05:51:14.219Z,23.72
2023-04-10T05:52:14.106Z,23.72
2023-04-10T05:53:14.103Z,23.72
2023-04-10T05:54:14.078Z,23.73
2023-04-10T05:55:14.066Z,23.73
2023-04-10T05:56:14.050Z,23.73
2023-04-10T05:57:14.040Z,23.75
2023-04-10T05:58:14.017Z,23.73
2023-04-10T05:59:14.002Z,23.75
2023-04-10T06:00:13.992Z,23.73
2023-04-10T06:01:13.977Z,23.72
2023-04-10T06:02:14.007Z,23.71
2023-04-10T06:03:14.117Z,23.73
2023-04-10T06:04:14.116Z,23.72
2023-04-10T06:05:13.979Z,23.71
2023-04-10T06:06:13.888Z,23.73
2023-04-10T06:07:13.877Z,23.75
2023-04-10T06:08:13.861Z,23.73
2023-04-10T06:09:13.865Z,23.72
2023-04-10T06:10:14.450Z,23.73
2023-04-10T06:11:13.827Z,23.76
2023-04-10T06:12:13.822Z,23.75
2023-04-10T06:13:13.810Z,23.76
2023-04-10T06:14:13.785Z,23.75
2023-04-10T06:15:13.772Z,23.75
2023-04-10T06:16:13.791Z,23.75
2023-04-10T06:17:13.744Z,23.73
2023-04-10T06:18:13.726Z,23.73
2023-04-10T06:19:13.699Z,23.73
2023-04-10T06:20:13.688Z,23.75
2023-04-10T06:21:13.789Z,23.75
2023-04-10T06:22:13.756Z,23.76
2023-04-10T06:23:13.620Z,23.76
2023-04-10T06:24:13.602Z,23.73
2023-04-10T06:25:13.589Z,23.75
2023-04-10T06:26:13.562Z,23.73
2023-04-10T06:27:13.544Z,23.73
2023-04-10T06:28:13.531Z,23.82
2023-04-10T06:29:13.513Z,23.85
2023-04-10T06:30:13.497Z,23.92
2023-04-10T06:31:13.469Z,23.98
2023-04-10T06:32:13.467Z,24.03
2023-04-10T06:33:13.501Z,24.03
2023-04-10T06:34:13.552Z,24.06
2023-04-10T06:35:13.601Z,24.09
2023-04-10T06:36:13.682Z,24.09
2023-04-10T06:37:13.693Z,24.12
2023-04-10T06:38:13.739Z,24.13
2023-04-10T06:39:13.786Z,24.13
2023-04-10T06:40:13.821Z,24.13
2023-04-10T06:41:13.860Z,24.15
2023-04-10T06:42:13.892Z,24.16
2023-04-10T06:43:13.923Z,24.16
2023-04-10T06:44:13.993Z,24.19
2023-04-10T06:45:13.979Z,24.21
2023-04-10T06:46:14.038Z,24.23
2023-04-10T06:47:14.027Z,24.24
2023-04-10T06:48:14.970Z,24.27
2023-04-10T06:49:14.113Z,24.29
2023-04-10T06:50:14.075Z,24.30
2023-04-10T06:51:14.084Z,24.31
2023-04-10T06:52:14.110Z,24.34
2023-04-10T06:53:14.112Z,24.36
2023-04-10T06:54:14.134Z,24.40
2023-04-10T06:55:14.123Z,24.44
2023-04-10T06:56:14.127Z,24.43
2023-04-10T06:57:14.124Z,24.44
2023-04-10T06:58:14.133Z,24.48
2023-04-10T06:59:14.149Z,24.47
2023-04-10T07:00:14.159Z,24.50
2023-04-10T07:01:14.292Z,24.50
2023-04-10T07:02:14.213Z,24.51
2023-04-10T07:03:14.199Z,24.53
2023-04-10T07:04:14.190Z,24.53
2023-04-10T07:05:14.200Z,24.54
2023-04-10T07:06:14.219Z,24.54
2023-04-10T07:07:14.195Z,24.58
2023-04-10T07:08:14.211Z,24.57
2023-04-10T07:09:14.199Z,24.61
2023-04-10T07:10:14.371Z,24.64
2023-04-10T07:11:14.180Z,24.63
2023-04-10T07:12:14.185Z,24.61
2023-04-10T07:13:14.190Z,24.65
2023-04-10T07:14:14.176Z,24.65
2023-04-10T07:15:14.177Z,24.67
2023-04-10T07:16:14.193Z,24.68
2023-04-10T07:17:14.183Z,24.70
2023-04-10T07:18:14.174Z,24.72
2023-04-10T07:19:14.182Z,24.72
2023-04-10T07:20:14.176Z,24.74
2023-04-10T07:21:14.160Z,24.77
2023-04-10T07:22:14.156Z,24.77
2023-04-10T07:23:14.153Z,24.81
2023-04-10T07:24:14.158Z,24.81
2023-04-10T07:25:14.145Z,24.81
2023-04-10T07:26:14.129Z,24.84
2023-04-10T07:27:14.129Z,24.85
2023-04-10T07:28:14.128Z,24.85
2023-04-10T07:29:14.107Z,24.88
2023-04-10T07:30:14.097Z,24.89
2023-04-10T07:31:14.149Z,24.92
2023-04-10T07:32:14.170Z,24.92
2023-04-10T07:33:14.294Z,24.92
2023-04-10T07:34:14.037Z,24.96
2023-04-10T07:35:14.206Z,24.98
2023-04-10T07:36:14.027Z,24.98
2023-04-10T07:37:13.982Z,24.99
2023-04-10T07:38:13.970Z,25.04
2023-04-10T07:39:13.941Z,25.05
2023-04-10T07:40:14.026Z,25.05
2023-04-10T07:41:14.023Z,25.06
2023-04-10T07:42:13.861Z,25.08
2023-04-10T07:43:13.860Z,25.11
2023-04-10T07:44:13.830Z,25.13
2023-04-10T07:45:13.814Z,25.13
2023-04-10T07:46:13.824Z,25.15
2023-04-10T07:47:13.745Z,25.15
2023-04-10T07:48:13.711Z,25.16
2023-04-10T07:49:13.699Z,25.16
2023-04-10T07:50:13.673Z,25.18
2023-04-10T07:51:13.867Z,25.19
2023-04-10T07:52:14.635Z,25.19
2023-04-10T07:53:13.702Z,25.19
2023-04-10T07:54:13.619Z,25.23
2023-04-10T07:55:13.520Z,25.22
2023-04-10T07:56:14.498Z,25.25
2023-04-10T07:57:13.463Z,25.26
2023-04-10T07:58:13.439Z,25.29
2023-04-10T07:59:13.446Z,25.28
2023-04-10T08:00:13.432Z,25.30
2023-04-10T08:01:13.417Z,25.32
2023-04-10T08:02:13.470Z,25.32
2023-04-10T08:03:13.654Z,25.30
2023-04-10T08:04:13.448Z,25.32
2023-04-10T08:05:13.414Z,25.34
2023-04-10T08:06:13.397Z,25.37
2023-04-10T08:07:13.394Z,25.37
2023-04-10T08:08:13.386Z,25.37
2023-04-10T08:09:13.434Z,25.39
2023-04-10T08:10:13.395Z,25.39
2023-04-10T08:11:15.243Z,25.43
2023-04-10T08:12:13.407Z,25.42
2023-04-10T08:13:13.712Z,25.46
2023-04-10T08:14:13.564Z,25.46
2023-04-10T08:15:14.393Z,25.49
2023-04-10T08:16:13.363Z,25.51
2023-04-10T08:17:13.303Z,25.50
2023-04-10T08:18:13.259Z,25.53
2023-04-10T08:19:13.252Z,25.53
2023-04-10T08:20:13.194Z,25.54
2023-04-10T08:21:13.159Z,25.51
2023-04-10T08:22:13.151Z,25.54
2023-04-10T08:23:20.547Z,25.57
2023-04-10T08:24:14.045Z,25.59
2023-04-10T08:25:13.023Z,25.54
2023-04-10T08:26:12.975Z,25.60
2023-04-10T08:27:12.951Z,25.61
2023-04-10T08:28:12.920Z,25.59
2023-04-10T08:29:12.866Z,25.63
2023-04-10T08:30:12.828Z,25.60
2023-04-10T08:31:12.828Z,25.64
2023-04-10T08:32:12.750Z,25.64
2023-04-10T08:33:12.768Z,25.67
2023-04-10T08:34:12.786Z,25.66
2023-04-10T08:35:12.830Z,25.66
2023-04-10T08:36:12.920Z,25.66
2023-04-10T08:37:13.694Z,25.67
2023-04-10T08:38:14.393Z,25.69
2023-04-10T08:39:12.962Z,25.70
2023-04-10T08:40:12.988Z,25.70
2023-04-10T08:41:14.137Z,25.71
2023-04-10T08:42:13.034Z,25.70
2023-04-10T08:43:13.120Z,25.73
2023-04-10T08:44:13.311Z,25.73
2023-04-10T08:45:13.113Z,25.73
2023-04-10T08:46:13.204Z,25.74
2023-04-10T08:47:13.166Z,25.77
2023-04-10T08:48:13.195Z,25.76
2023-04-10T08:49:13.235Z,25.76
2023-04-10T08:50:13.246Z,25.76
2023-04-10T08:51:18.656Z,25.78
2023-04-10T08:52:14.234Z,25.80
2023-04-10T08:53:13.230Z,25.83
2023-04-10T08:54:13.158Z,25.80
2023-04-10T08:55:13.114Z,25.80
2023-04-10T08:56:13.072Z,25.84
2023-04-10T08:57:13.036Z,25.83
2023-04-10T08:58:12.999Z,25.84
2023-04-10T08:59:12.954Z,25.87
2023-04-10T09:01:13.954Z,25.87
2023-04-10T09:02:12.945Z,25.87
2023-04-10T09:03:12.917Z,25.88
2023-04-10T09:04:12.814Z,25.85
2023-04-10T09:05:12.707Z,25.85
2023-04-10T09:06:12.881Z,25.84
2023-04-10T09:07:12.631Z,25.85
2023-04-10T09:08:12.878Z,25.85
2023-04-10T09:09:12.648Z,25.85
2023-04-10T09:10:12.514Z,25.84
2023-04-10T09:11:12.475Z,25.84
2023-04-10T09:12:12.473Z,25.85
2023-04-10T09:13:12.494Z,25.83
2023-04-10T09:14:12.516Z,25.87
2023-04-10T09:15:12.533Z,25.85
2023-04-10T09:16:12.623Z,25.85
2023-04-10T09:17:12.545Z,25.85
2023-04-10T09:18:13.616Z,25.87
2023-04-10T09:19:12.695Z,25.87
2023-04-10T09:20:12.774Z,25.85
2023-04-10T09:21:12.592Z,25.87
2023-04-10T09:22:12.617Z,25.85
2023-04-10T09:23:12.700Z,25.88
2023-04-10T09:24:13.190Z,25.85
2023-04-10T09:25:12.641Z,25.87
2023-04-10T09:26:12.650Z,25.88
2023-04-10T09:27:12.684Z,25.88
2023-04-10T09:28:13.561Z,25.89
2023-04-10T09:29:12.701Z,25.91
2023-04-10T09:30:12.724Z,25.91
2023-04-10T09:31:12.741Z,25.89
2023-04-10T09:32:12.758Z,25.91
2023-04-10T09:33:12.764Z,25.91
2023-04-10T09:34:12.762Z,25.94
2023-04-10T09:35:12.771Z,25.91
2023-04-10T09:36:12.804Z,25.94
2023-04-10T09:37:12.791Z,25.94
2023-04-10T09:38:12.801Z,25.94
2023-04-10T09:39:13.008Z,25.95
2023-04-10T09:40:12.803Z,25.94
2023-04-10T09:41:12.811Z,25.95
2023-04-10T09:42:12.838Z,25.98
2023-04-10T09:43:12.824Z,25.97
2023-04-10T09:44:12.829Z,25.97
2023-04-10T09:45:12.821Z,25.95
2023-04-10T09:46:12.848Z,25.97
2023-04-10T09:47:12.823Z,25.98
2023-04-10T09:48:12.831Z,25.98
2023-04-10T09:49:12.839Z,25.98
2023-04-10T09:50:13.439Z,25.97
2023-04-10T09:51:12.835Z,25.99
2023-04-10T09:52:12.846Z,25.97
2023-04-10T09:53:12.851Z,25.99
2023-04-10T09:54:12.850Z,25.97
2023-04-10T09:55:12.853Z,25.97
2023-04-10T09:56:12.863Z,25.97
2023-04-10T09:57:13.254Z,25.98
2023-04-10T09:58:12.865Z,25.99
2023-04-10T09:59:13.165Z,25.98
2023-04-10T10:00:12.890Z,25.99
2023-04-10T10:01:12.882Z,25.98
2023-04-10T10:02:12.995Z,25.97
2023-04-10T10:03:13.233Z,25.99
2023-04-10T10:04:13.113Z,26.01
2023-04-10T10:05:12.939Z,25.97
2023-04-10T10:06:12.945Z,25.98
2023-04-10T10:07:14.174Z,25.98
2023-04-10T10:08:12.950Z,25.98
2023-04-10T10:09:13.053Z,25.95
2023-04-10T10:10:12.971Z,25.98
2023-04-10T10:11:13.095Z,25.98
2023-04-10T10:12:12.999Z,25.97
2023-04-10T10:13:13.014Z,25.97
2023-04-10T10:14:13.027Z,25.95
2023-04-10T10:15:13.058Z,25.95
2023-04-10T10:16:13.132Z,25.97
2023-04-10T10:17:13.039Z,25.95
2023-04-10T10:18:13.051Z,25.98
2023-04-10T10:19:13.064Z,25.94
2023-04-10T10:20:13.053Z,25.95
2023-04-10T10:21:13.065Z,25.97
2023-04-10T10:22:13.096Z,25.94
2023-04-10T10:23:13.093Z,25.92
2023-04-10T10:24:13.107Z,25.91
2023-04-10T10:25:13.114Z,25.95
2023-04-10T10:26:13.127Z,25.94
2023-04-10T10:27:13.134Z,25.92
2023-04-10T10:28:13.206Z,25.91
2023-04-10T10:29:13.166Z,25.91
2023-04-10T10:30:28.195Z,25.89
2023-04-10T10:31:14.179Z,25.91
2023-04-10T10:32:13.126Z,25.92
2023-04-10T10:33:13.076Z,25.91
2023-04-10T10:34:13.056Z,25.89
2023-04-10T10:35:13.018Z,25.91
2023-04-10T10:36:12.986Z,25.89
2023-04-10T10:37:12.943Z,25.88
2023-04-10T10:38:12.918Z,25.91
2023-04-10T10:39:12.885Z,25.89
2023-04-10T10:40:12.836Z,25.89
2023-04-10T10:41:12.817Z,25.88
2023-04-10T10:42:12.777Z,25.88
2023-04-10T10:43:12.756Z,25.85
2023-04-10T10:44:12.700Z,25.85
2023-04-10T10:45:12.666Z,25.85
2023-04-10T10:46:12.790Z,25.87
2023-04-10T10:47:12.602Z,25.85
2023-04-10T10:48:12.577Z,25.84
2023-04-10T10:49:12.573Z,25.84
2023-04-10T10:50:12.744Z,25.87
2023-04-10T10:51:12.625Z,25.84
2023-04-10T10:52:12.451Z,25.83
2023-04-10T10:53:12.417Z,25.83
2023-04-10T10:54:12.395Z,25.83
2023-04-10T10:55:12.612Z,25.81
2023-04-10T10:56:12.347Z,25.81
2023-04-10T10:57:12.303Z,25.78
2023-04-10T10:58:12.266Z,25.80
2023-04-10T10:59:12.223Z,25.78
2023-04-10T11:00:12.201Z,25.78
2023-04-10T11:01:12.474Z,25.78
2023-04-10T11:02:12.462Z,25.77
2023-04-10T11:03:12.434Z,25.76
2023-04-10T11:04:12.323Z,25.77
2023-04-10T11:05:12.314Z,25.76
2023-04-10T11:06:12.349Z,25.76
2023-04-10T11:07:12.372Z,25.73
2023-04-10T11:08:12.391Z,25.71
2023-04-10T11:09:12.432Z,25.77
2023-04-10T11:10:12.471Z,25.76
2023-04-10T11:11:12.490Z,25.71
2023-04-10T11:12:12.517Z,25.70
2023-04-10T11:13:12.545Z,25.70
2023-04-10T11:14:12.572Z,25.69
2023-04-10T11:15:12.599Z,25.69
2023-04-10T11:16:12.758Z,25.66
2023-04-10T11:17:12.663Z,25.69
2023-04-10T11:18:12.682Z,25.64
2023-04-10T11:19:14.652Z,25.66
2023-04-10T11:20:12.695Z,25.64
2023-04-10T11:21:12.646Z,25.64
2023-04-10T11:22:12.772Z,25.63
2023-04-10T11:23:12.737Z,25.64
2023-04-10T11:24:12.799Z,25.63
2023-04-10T11:25:12.530Z,25.63
2023-04-10T11:26:12.496Z,25.61
2023-04-10T11:27:12.469Z,25.60
2023-04-10T11:28:12.438Z,25.61
2023-04-10T11:29:12.408Z,25.61
2023-04-10T11:30:12.376Z,25.60
2023-04-10T11:31:12.360Z,25.61
2023-04-10T11:32:12.426Z,25.60
2023-04-10T11:33:12.291Z,25.59
2023-04-10T11:34:12.264Z,25.60
2023-04-10T11:35:12.230Z,25.56
2023-04-10T11:36:12.190Z,25.56
2023-04-10T11:37:12.190Z,25.57
2023-04-10T11:38:12.145Z,25.53
2023-04-10T11:39:12.113Z,25.54
2023-04-10T11:40:12.090Z,25.54
2023-04-10T11:41:12.042Z,25.56
2023-04-10T11:42:12.009Z,25.54
2023-04-10T11:43:11.973Z,25.51
2023-04-10T11:44:11.957Z,25.50
2023-04-10T11:45:11.904Z,25.49
2023-04-10T11:46:11.898Z,25.49
2023-04-10T11:47:11.852Z,25.51
2023-04-10T11:48:11.816Z,25.47
2023-04-10T11:49:11.788Z,25.47
2023-04-10T11:50:11.753Z,25.47
2023-04-10T11:51:11.713Z,25.44
2023-04-10T11:52:11.683Z,25.43
2023-04-10T11:53:11.643Z,25.44
2023-04-10T11:54:11.609Z,25.44
2023-04-10T11:55:11.589Z,25.44
2023-04-10T11:56:11.550Z,25.42
2023-04-10T11:57:11.509Z,25.42
2023-04-10T11:58:11.456Z,25.42
2023-04-10T11:59:11.498Z,25.40
2023-04-10T12:00:11.410Z,25.42
2023-04-10T12:01:11.362Z,25.42
2023-04-10T12:02:11.440Z,25.40
2023-04-10T12:03:11.396Z,25.39
2023-04-10T12:04:11.356Z,25.37
2023-04-10T12:05:11.282Z,25.37
2023-04-10T12:06:11.232Z,25.34
2023-04-10T12:07:11.249Z,25.36
2023-04-10T12:08:11.248Z,25.34
2023-04-10T12:09:11.262Z,25.33
2023-04-10T12:10:11.269Z,25.33
2023-04-10T12:11:11.271Z,25.32
2023-04-10T12:12:11.290Z,25.32
2023-04-10T12:13:11.474Z,25.33
2023-04-10T12:14:11.313Z,25.30
2023-04-10T12:15:11.322Z,25.28
2023-04-10T12:16:11.368Z,25.29
2023-04-10T12:17:11.379Z,25.28
2023-04-10T12:18:11.345Z,25.29
2023-04-10T12:19:11.353Z,25.26
2023-04-10T12:20:11.378Z,25.26
2023-04-10T12:21:11.404Z,25.25
2023-04-10T12:22:11.394Z,25.25
2023-04-10T12:23:11.397Z,25.22
2023-04-10T12:24:11.426Z,25.26
2023-04-10T12:25:11.461Z,25.21
2023-04-10T12:26:11.429Z,25.23
2023-04-10T12:27:11.418Z,25.22
2023-04-10T12:28:11.410Z,25.21
2023-04-10T12:29:11.407Z,25.23
2023-04-10T12:30:11.420Z,25.19
2023-04-10T12:31:11.460Z,25.19
2023-04-10T12:32:11.431Z,25.19
2023-04-10T12:33:11.441Z,25.18
2023-04-10T12:34:11.560Z,25.18
2023-04-10T12:35:11.465Z,25.18
2023-04-10T12:36:11.448Z,25.18
2023-04-10T12:37:11.456Z,25.16
2023-04-10T12:38:11.458Z,25.15
2023-04-10T12:39:11.473Z,25.16
2023-04-10T12:40:11.492Z,25.15
2023-04-10T12:41:11.509Z,25.15
2023-04-10T12:42:11.458Z,25.15
2023-04-10T12:43:11.438Z,25.15
2023-04-10T12:44:11.445Z,25.13
2023-04-10T12:45:11.449Z,25.13
2023-04-10T12:46:11.480Z,25.12
2023-04-10T12:47:11.454Z,25.12
2023-04-10T12:48:12.135Z,25.11
2023-04-10T12:49:11.488Z,25.12
2023-04-10T12:50:11.515Z,25.12
2023-04-10T12:51:11.398Z,25.11
2023-04-10T12:52:11.397Z,25.12
2023-04-10T12:53:11.805Z,25.13